sensor_id;sensor_type;location;lat;lon;timestamp;P1;durP1;ratioP1;P2;durP2;ratioP2
4222;SDS011;2125;51.436;14.138;2022-09-23T00:00:59;1.07;;;0.60;;
4222;SDS011;2125;51.436;14.138;2022-09-23T00:03:29;0.50;;;0.43;;
4222;SDS011;2125;51.436;14.138;2022-09-23T00:06:03;0.80;;;0.70;;
4222;SDS011;2125;51.436;14.138;2022-09-23T00:08:35;0.90;;;0.67;;
4222;SDS011;2125;51.436;14.138;2022-09-23T00:11:09;2.30;;;1.23;;
4222;SDS011;2125;51.436;14.138;2022-09-23T00:13:38;1.27;;;0.80;;
4222;SDS011;2125;51.436;14.138;2022-09-23T00:16:18;0.70;;;0.60;;
4222;SDS011;2125;51.436;14.138;2022-09-23T00:18:49;0.50;;;0.40;;
4222;SDS011;2125;51.436;14.138;2022-09-23T00:21:27;0.57;;;0.40;;
4222;SDS011;2125;51.436;14.138;2022-09-23T00:24:13;0.60;;;0.40;;
4222;SDS011;2125;51.436;14.138;2022-09-23T00:26:47;1.17;;;0.67;;
4222;SDS011;2125;51.436;14.138;2022-09-23T00:29:17;1.00;;;0.77;;
4222;SDS011;2125;51.436;14.138;2022-09-23T00:31:46;0.50;;;0.40;;
4222;SDS011;2125;51.436;14.138;2022-09-23T00:34:13;0.70;;;0.50;;
4222;SDS011;2125;51.436;14.138;2022-09-23T00:36:46;0.70;;;0.60;;
4222;SDS011;2125;51.436;14.138;2022-09-23T00:39:23;0.80;;;0.80;;
4222;SDS011;2125;51.436;14.138;2022-09-23T00:42:07;1.10;;;0.70;;
4222;SDS011;2125;51.436;14.138;2022-09-23T00:47:50;1.67;;;0.87;;
4222;SDS011;2125;51.436;14.138;2022-09-23T00:50:23;0.50;;;0.43;;
4222;SDS011;2125;51.436;14.138;2022-09-23T00:53:22;0.70;;;0.63;;
4222;SDS011;2125;51.436;14.138;2022-09-23T00:56:07;4.00;;;1.20;;
4222;SDS011;2125;51.436;14.138;2022-09-23T00:58:57;11.60;;;1.80;;
4222;SDS011;2125;51.436;14.138;2022-09-23T01:01:55;1.80;;;1.10;;
4222;SDS011;2125;51.436;14.138;2022-09-23T01:04:48;0.80;;;0.63;;
4222;SDS011;2125;51.436;14.138;2022-09-23T01:07:29;0.70;;;0.70;;
4222;SDS011;2125;51.436;14.138;2022-09-23T01:10:08;1.10;;;0.80;;
4222;SDS011;2125;51.436;14.138;2022-09-23T01:12:50;0.80;;;0.57;;
4222;SDS011;2125;51.436;14.138;2022-09-23T01:15:27;0.50;;;0.40;;
4222;SDS011;2125;51.436;14.138;2022-09-23T01:18:03;0.70;;;0.70;;
4222;SDS011;2125;51.436;14.138;2022-09-23T01:20:52;0.70;;;0.50;;
4222;SDS011;2125;51.436;14.138;2022-09-23T01:23:42;0.60;;;0.43;;
4222;SDS011;2125;51.436;14.138;2022-09-23T01:27:03;0.70;;;0.57;;
4222;SDS011;2125;51.436;14.138;2022-09-23T01:33:03;0.90;;;0.50;;
4222;SDS011;2125;51.436;14.138;2022-09-23T01:38:48;0.90;;;0.83;;
4222;SDS011;2125;51.436;14.138;2022-09-23T01:44:26;1.83;;;1.20;;
4222;SDS011;2125;51.436;14.138;2022-09-23T01:47:08;0.93;;;0.77;;
4222;SDS011;2125;51.436;14.138;2022-09-23T01:49:45;0.90;;;0.77;;
4222;SDS011;2125;51.436;14.138;2022-09-23T01:52:17;4.00;;;1.10;;
4222;SDS011;2125;51.436;14.138;2022-09-23T01:54:52;0.70;;;0.70;;
4222;SDS011;2125;51.436;14.138;2022-09-23T01:57:43;1.00;;;0.70;;
4222;SDS011;2125;51.436;14.138;2022-09-23T02:00:49;0.77;;;0.57;;
4222;SDS011;2125;51.436;14.138;2022-09-23T02:03:25;1.07;;;0.97;;
4222;SDS011;2125;51.436;14.138;2022-09-23T02:06:01;3.77;;;1.60;;
4222;SDS011;2125;51.436;14.138;2022-09-23T02:08:42;1.53;;;0.63;;
4222;SDS011;2125;51.436;14.138;2022-09-23T02:11:26;1.17;;;1.00;;
4222;SDS011;2125;51.436;14.138;2022-09-23T02:14:08;1.30;;;0.67;;
4222;SDS011;2125;51.436;14.138;2022-09-23T02:17:18;1.23;;;1.10;;
4222;SDS011;2125;51.436;14.138;2022-09-23T02:20:05;0.50;;;0.37;;
4222;SDS011;2125;51.436;14.138;2022-09-23T02:22:39;0.60;;;0.50;;
4222;SDS011;2125;51.436;14.138;2022-09-23T02:25:41;0.50;;;0.40;;
4222;SDS011;2125;51.436;14.138;2022-09-23T02:28:23;0.50;;;0.40;;
4222;SDS011;2125;51.436;14.138;2022-09-23T02:31:25;1.27;;;0.40;;
4222;SDS011;2125;51.436;14.138;2022-09-23T02:36:59;0.93;;;0.70;;
4222;SDS011;2125;51.436;14.138;2022-09-23T02:42:53;0.50;;;0.47;;
4222;SDS011;2125;51.436;14.138;2022-09-23T02:45:29;1.40;;;1.07;;
4222;SDS011;2125;51.436;14.138;2022-09-23T02:48:00;0.77;;;0.70;;
4222;SDS011;2125;51.436;14.138;2022-09-23T02:50:43;1.03;;;0.87;;
4222;SDS011;2125;51.436;14.138;2022-09-23T02:53:26;1.60;;;0.60;;
4222;SDS011;2125;51.436;14.138;2022-09-23T02:56:10;0.50;;;0.50;;
4222;SDS011;2125;51.436;14.138;2022-09-23T02:58:43;1.43;;;0.60;;
4222;SDS011;2125;51.436;14.138;2022-09-23T03:01:26;0.60;;;0.60;;
4222;SDS011;2125;51.436;14.138;2022-09-23T03:04:12;0.70;;;0.60;;
4222;SDS011;2125;51.436;14.138;2022-09-23T03:06:49;1.47;;;0.80;;
4222;SDS011;2125;51.436;14.138;2022-09-23T03:09:40;1.80;;;1.03;;
4222;SDS011;2125;51.436;14.138;2022-09-23T03:12:18;2.80;;;0.97;;
4222;SDS011;2125;51.436;14.138;2022-09-23T03:15:05;0.70;;;0.60;;
4222;SDS011;2125;51.436;14.138;2022-09-23T03:18:02;1.30;;;0.80;;
4222;SDS011;2125;51.436;14.138;2022-09-23T03:20:45;1.43;;;0.93;;
4222;SDS011;2125;51.436;14.138;2022-09-23T03:23:36;0.80;;;0.60;;
4222;SDS011;2125;51.436;14.138;2022-09-23T03:26:12;2.63;;;0.97;;
4222;SDS011;2125;51.436;14.138;2022-09-23T03:29:00;0.83;;;0.50;;
4222;SDS011;2125;51.436;14.138;2022-09-23T03:32:15;1.03;;;0.60;;
4222;SDS011;2125;51.436;14.138;2022-09-23T03:35:02;1.00;;;0.70;;
4222;SDS011;2125;51.436;14.138;2022-09-23T03:37:38;0.80;;;0.60;;
4222;SDS011;2125;51.436;14.138;2022-09-23T03:40:27;0.57;;;0.57;;
4222;SDS011;2125;51.436;14.138;2022-09-23T03:43:08;0.60;;;0.43;;
4222;SDS011;2125;51.436;14.138;2022-09-23T03:45:38;0.60;;;0.40;;
4222;SDS011;2125;51.436;14.138;2022-09-23T03:48:15;1.57;;;1.17;;
4222;SDS011;2125;51.436;14.138;2022-09-23T03:50:42;0.50;;;0.40;;
4222;SDS011;2125;51.436;14.138;2022-09-23T03:53:12;0.80;;;0.70;;
4222;SDS011;2125;51.436;14.138;2022-09-23T03:55:48;0.50;;;0.40;;
4222;SDS011;2125;51.436;14.138;2022-09-23T03:58:17;0.60;;;0.60;;
4222;SDS011;2125;51.436;14.138;2022-09-23T04:01:01;3.00;;;1.00;;
4222;SDS011;2125;51.436;14.138;2022-09-23T04:03:42;2.63;;;1.10;;
4222;SDS011;2125;51.436;14.138;2022-09-23T04:06:39;0.60;;;0.40;;
4222;SDS011;2125;51.436;14.138;2022-09-23T04:09:20;0.50;;;0.50;;
4222;SDS011;2125;51.436;14.138;2022-09-23T04:11:49;0.50;;;0.40;;
4222;SDS011;2125;51.436;14.138;2022-09-23T04:14:30;0.50;;;0.40;;
4222;SDS011;2125;51.436;14.138;2022-09-23T04:17:02;0.50;;;0.40;;
4222;SDS011;2125;51.436;14.138;2022-09-23T04:19:41;1.20;;;0.77;;
4222;SDS011;2125;51.436;14.138;2022-09-23T04:22:09;0.60;;;0.50;;
4222;SDS011;2125;51.436;14.138;2022-09-23T04:24:46;2.00;;;0.50;;
4222;SDS011;2125;51.436;14.138;2022-09-23T04:27:13;0.60;;;0.40;;
4222;SDS011;2125;51.436;14.138;2022-09-23T04:29:40;0.83;;;0.50;;
4222;SDS011;2125;51.436;14.138;2022-09-23T04:32:12;0.50;;;0.40;;
4222;SDS011;2125;51.436;14.138;2022-09-23T04:34:43;0.73;;;0.73;;
4222;SDS011;2125;51.436;14.138;2022-09-23T04:37:36;1.73;;;0.77;;
4222;SDS011;2125;51.436;14.138;2022-09-23T04:40:11;0.50;;;0.40;;
4222;SDS011;2125;51.436;14.138;2022-09-23T04:42:47;0.87;;;0.57;;
4222;SDS011;2125;51.436;14.138;2022-09-23T04:45:21;1.53;;;0.70;;
4222;SDS011;2125;51.436;14.138;2022-09-23T04:48:01;0.60;;;0.50;;
4222;SDS011;2125;51.436;14.138;2022-09-23T04:50:33;2.40;;;0.63;;
4222;SDS011;2125;51.436;14.138;2022-09-23T04:53:23;0.87;;;0.80;;
4222;SDS011;2125;51.436;14.138;2022-09-23T04:55:52;3.80;;;0.90;;
4222;SDS011;2125;51.436;14.138;2022-09-23T04:58:19;1.00;;;0.80;;
4222;SDS011;2125;51.436;14.138;2022-09-23T05:00:47;0.73;;;0.60;;
4222;SDS011;2125;51.436;14.138;2022-09-23T05:03:14;2.30;;;1.23;;
4222;SDS011;2125;51.436;14.138;2022-09-23T05:05:41;0.60;;;0.57;;
4222;SDS011;2125;51.436;14.138;2022-09-23T05:08:08;1.30;;;0.80;;
4222;SDS011;2125;51.436;14.138;2022-09-23T05:10:41;0.57;;;0.50;;
4222;SDS011;2125;51.436;14.138;2022-09-23T05:13:10;1.27;;;0.80;;
4222;SDS011;2125;51.436;14.138;2022-09-23T05:15:36;1.73;;;0.50;;
4222;SDS011;2125;51.436;14.138;2022-09-23T05:18:09;0.73;;;0.63;;
4222;SDS011;2125;51.436;14.138;2022-09-23T05:20:37;0.80;;;0.80;;
4222;SDS011;2125;51.436;14.138;2022-09-23T05:23:24;0.50;;;0.30;;
4222;SDS011;2125;51.436;14.138;2022-09-23T05:25:55;0.50;;;0.40;;
4222;SDS011;2125;51.436;14.138;2022-09-23T05:28:26;0.50;;;0.30;;
4222;SDS011;2125;51.436;14.138;2022-09-23T05:31:00;1.07;;;0.97;;
4222;SDS011;2125;51.436;14.138;2022-09-23T05:33:30;0.70;;;0.50;;
4222;SDS011;2125;51.436;14.138;2022-09-23T05:35:59;0.73;;;0.60;;
4222;SDS011;2125;51.436;14.138;2022-09-23T05:38:26;1.73;;;1.00;;
4222;SDS011;2125;51.436;14.138;2022-09-23T05:40:56;0.50;;;0.50;;
4222;SDS011;2125;51.436;14.138;2022-09-23T05:43:24;1.63;;;0.67;;
4222;SDS011;2125;51.436;14.138;2022-09-23T05:45:53;1.37;;;1.13;;
4222;SDS011;2125;51.436;14.138;2022-09-23T05:48:28;0.87;;;0.50;;
4222;SDS011;2125;51.436;14.138;2022-09-23T05:51:00;0.50;;;0.40;;
4222;SDS011;2125;51.436;14.138;2022-09-23T05:53:29;0.60;;;0.50;;
4222;SDS011;2125;51.436;14.138;2022-09-23T05:56:04;0.60;;;0.37;;
4222;SDS011;2125;51.436;14.138;2022-09-23T05:58:38;0.70;;;0.40;;
4222;SDS011;2125;51.436;14.138;2022-09-23T06:04:09;1.20;;;0.63;;
4222;SDS011;2125;51.436;14.138;2022-09-23T06:06:39;1.63;;;1.07;;
4222;SDS011;2125;51.436;14.138;2022-09-23T06:09:10;0.50;;;0.50;;
4222;SDS011;2125;51.436;14.138;2022-09-23T06:11:40;0.90;;;0.83;;
4222;SDS011;2125;51.436;14.138;2022-09-23T06:14:20;1.03;;;1.03;;
4222;SDS011;2125;51.436;14.138;2022-09-23T06:16:59;2.00;;;0.90;;
4222;SDS011;2125;51.436;14.138;2022-09-23T06:19:31;1.27;;;0.83;;
4222;SDS011;2125;51.436;14.138;2022-09-23T06:22:14;2.20;;;1.57;;
4222;SDS011;2125;51.436;14.138;2022-09-23T06:24:43;0.70;;;0.50;;
4222;SDS011;2125;51.436;14.138;2022-09-23T06:27:12;2.80;;;1.93;;
4222;SDS011;2125;51.436;14.138;2022-09-23T06:30:05;4.97;;;1.50;;
4222;SDS011;2125;51.436;14.138;2022-09-23T06:32:50;4.93;;;1.50;;
4222;SDS011;2125;51.436;14.138;2022-09-23T06:35:21;2.87;;;1.67;;
4222;SDS011;2125;51.436;14.138;2022-09-23T06:40:36;3.50;;;2.00;;
4222;SDS011;2125;51.436;14.138;2022-09-23T06:43:19;2.80;;;1.43;;
4222;SDS011;2125;51.436;14.138;2022-09-23T06:48:39;2.40;;;1.67;;
4222;SDS011;2125;51.436;14.138;2022-09-23T06:51:40;5.53;;;1.70;;
4222;SDS011;2125;51.436;14.138;2022-09-23T06:54:35;2.23;;;1.30;;
4222;SDS011;2125;51.436;14.138;2022-09-23T06:57:13;5.70;;;1.23;;
4222;SDS011;2125;51.436;14.138;2022-09-23T06:59:54;1.97;;;1.77;;
4222;SDS011;2125;51.436;14.138;2022-09-23T07:02:22;3.90;;;1.90;;
4222;SDS011;2125;51.436;14.138;2022-09-23T07:04:56;4.33;;;2.70;;
4222;SDS011;2125;51.436;14.138;2022-09-23T07:07:30;2.93;;;1.50;;
4222;SDS011;2125;51.436;14.138;2022-09-23T07:09:59;2.20;;;1.30;;
4222;SDS011;2125;51.436;14.138;2022-09-23T07:12:39;3.20;;;1.93;;
4222;SDS011;2125;51.436;14.138;2022-09-23T07:15:09;4.90;;;1.90;;
4222;SDS011;2125;51.436;14.138;2022-09-23T07:17:40;2.50;;;1.27;;
4222;SDS011;2125;51.436;14.138;2022-09-23T07:20:09;3.50;;;2.00;;
4222;SDS011;2125;51.436;14.138;2022-09-23T07:25:23;4.80;;;2.03;;
4222;SDS011;2125;51.436;14.138;2022-09-23T07:27:50;4.20;;;2.20;;
4222;SDS011;2125;51.436;14.138;2022-09-23T07:30:20;26.53;;;2.80;;
4222;SDS011;2125;51.436;14.138;2022-09-23T07:32:53;6.37;;;2.47;;
4222;SDS011;2125;51.436;14.138;2022-09-23T07:35:22;5.63;;;2.27;;
4222;SDS011;2125;51.436;14.138;2022-09-23T07:37:53;5.17;;;2.50;;
4222;SDS011;2125;51.436;14.138;2022-09-23T07:40:34;6.60;;;2.70;;
4222;SDS011;2125;51.436;14.138;2022-09-23T07:43:15;3.67;;;1.67;;
4222;SDS011;2125;51.436;14.138;2022-09-23T07:45:44;4.90;;;2.30;;
4222;SDS011;2125;51.436;14.138;2022-09-23T07:48:15;4.83;;;2.20;;
4222;SDS011;2125;51.436;14.138;2022-09-23T07:53:18;6.30;;;2.53;;
4222;SDS011;2125;51.436;14.138;2022-09-23T07:55:52;9.67;;;3.70;;
4222;SDS011;2125;51.436;14.138;2022-09-23T07:58:23;4.40;;;2.20;;
4222;SDS011;2125;51.436;14.138;2022-09-23T08:00:54;4.33;;;2.30;;
4222;SDS011;2125;51.436;14.138;2022-09-23T08:03:31;4.40;;;2.10;;
4222;SDS011;2125;51.436;14.138;2022-09-23T08:06:03;4.83;;;2.60;;
4222;SDS011;2125;51.436;14.138;2022-09-23T08:08:34;6.50;;;2.40;;
4222;SDS011;2125;51.436;14.138;2022-09-23T08:11:05;4.30;;;2.37;;
4222;SDS011;2125;51.436;14.138;2022-09-23T08:13:33;3.80;;;2.23;;
4222;SDS011;2125;51.436;14.138;2022-09-23T08:16:00;4.40;;;2.70;;
4222;SDS011;2125;51.436;14.138;2022-09-23T08:18:27;2.47;;;1.77;;
4222;SDS011;2125;51.436;14.138;2022-09-23T08:20:54;3.87;;;2.10;;
4222;SDS011;2125;51.436;14.138;2022-09-23T08:23:20;7.23;;;2.87;;
4222;SDS011;2125;51.436;14.138;2022-09-23T08:25:47;5.23;;;2.27;;
4222;SDS011;2125;51.436;14.138;2022-09-23T08:28:15;3.97;;;1.77;;
4222;SDS011;2125;51.436;14.138;2022-09-23T08:30:46;15.87;;;5.93;;
4222;SDS011;2125;51.436;14.138;2022-09-23T08:33:14;8.00;;;3.30;;
4222;SDS011;2125;51.436;14.138;2022-09-23T08:35:47;5.67;;;2.57;;
4222;SDS011;2125;51.436;14.138;2022-09-23T08:38:13;2.50;;;2.00;;
4222;SDS011;2125;51.436;14.138;2022-09-23T08:40:43;4.23;;;2.57;;
4222;SDS011;2125;51.436;14.138;2022-09-23T08:43:13;5.60;;;2.70;;
4222;SDS011;2125;51.436;14.138;2022-09-23T08:45:47;2.93;;;1.83;;
4222;SDS011;2125;51.436;14.138;2022-09-23T08:48:18;3.47;;;1.40;;
4222;SDS011;2125;51.436;14.138;2022-09-23T08:50:51;3.03;;;1.63;;
4222;SDS011;2125;51.436;14.138;2022-09-23T08:53:23;1.53;;;1.37;;
4222;SDS011;2125;51.436;14.138;2022-09-23T08:55:52;3.17;;;1.50;;
4222;SDS011;2125;51.436;14.138;2022-09-23T08:58:28;2.27;;;1.60;;
4222;SDS011;2125;51.436;14.138;2022-09-23T09:01:09;4.50;;;1.40;;
4222;SDS011;2125;51.436;14.138;2022-09-23T09:03:42;2.50;;;1.70;;
4222;SDS011;2125;51.436;14.138;2022-09-23T09:06:14;1.90;;;1.50;;
4222;SDS011;2125;51.436;14.138;2022-09-23T09:08:45;2.20;;;1.67;;
4222;SDS011;2125;51.436;14.138;2022-09-23T09:11:18;2.77;;;1.27;;
4222;SDS011;2125;51.436;14.138;2022-09-23T09:13:52;1.47;;;1.10;;
4222;SDS011;2125;51.436;14.138;2022-09-23T09:16:29;4.00;;;1.60;;
4222;SDS011;2125;51.436;14.138;2022-09-23T09:19:10;3.97;;;1.97;;
4222;SDS011;2125;51.436;14.138;2022-09-23T09:21:42;2.87;;;1.53;;
4222;SDS011;2125;51.436;14.138;2022-09-23T09:24:15;3.43;;;1.70;;
4222;SDS011;2125;51.436;14.138;2022-09-23T09:26:43;3.00;;;1.77;;
4222;SDS011;2125;51.436;14.138;2022-09-23T09:29:13;3.60;;;1.70;;
4222;SDS011;2125;51.436;14.138;2022-09-23T09:31:44;5.90;;;2.10;;
4222;SDS011;2125;51.436;14.138;2022-09-23T09:34:14;2.73;;;1.80;;
4222;SDS011;2125;51.436;14.138;2022-09-23T09:36:52;1.70;;;1.03;;
4222;SDS011;2125;51.436;14.138;2022-09-23T09:39:27;1.30;;;1.00;;
4222;SDS011;2125;51.436;14.138;2022-09-23T09:41:54;1.27;;;1.00;;
4222;SDS011;2125;51.436;14.138;2022-09-23T09:44:27;2.47;;;1.50;;
4222;SDS011;2125;51.436;14.138;2022-09-23T09:47:07;6.00;;;2.43;;
4222;SDS011;2125;51.436;14.138;2022-09-23T09:49:52;5.70;;;2.17;;
4222;SDS011;2125;51.436;14.138;2022-09-23T09:52:23;2.70;;;1.40;;
4222;SDS011;2125;51.436;14.138;2022-09-23T09:54:54;1.80;;;1.27;;
4222;SDS011;2125;51.436;14.138;2022-09-23T09:57:36;1.30;;;1.03;;
4222;SDS011;2125;51.436;14.138;2022-09-23T10:03:02;1.53;;;1.10;;
4222;SDS011;2125;51.436;14.138;2022-09-23T10:05:46;1.20;;;0.80;;
4222;SDS011;2125;51.436;14.138;2022-09-23T10:08:20;1.37;;;1.03;;
4222;SDS011;2125;51.436;14.138;2022-09-23T10:10:50;1.50;;;1.00;;
4222;SDS011;2125;51.436;14.138;2022-09-23T10:13:19;1.40;;;1.10;;
4222;SDS011;2125;51.436;14.138;2022-09-23T10:15:49;1.00;;;0.90;;
4222;SDS011;2125;51.436;14.138;2022-09-23T10:18:19;1.53;;;0.93;;
4222;SDS011;2125;51.436;14.138;2022-09-23T10:20:48;1.77;;;1.03;;
4222;SDS011;2125;51.436;14.138;2022-09-23T10:23:17;1.60;;;1.20;;
4222;SDS011;2125;51.436;14.138;2022-09-23T10:25:54;4.50;;;1.37;;
4222;SDS011;2125;51.436;14.138;2022-09-23T10:28:42;1.27;;;1.03;;
4222;SDS011;2125;51.436;14.138;2022-09-23T10:31:14;1.90;;;1.17;;
4222;SDS011;2125;51.436;14.138;2022-09-23T10:33:49;1.30;;;0.80;;
4222;SDS011;2125;51.436;14.138;2022-09-23T10:36:18;1.67;;;0.80;;
4222;SDS011;2125;51.436;14.138;2022-09-23T10:38:46;0.80;;;0.60;;
4222;SDS011;2125;51.436;14.138;2022-09-23T10:41:17;1.63;;;0.93;;
4222;SDS011;2125;51.436;14.138;2022-09-23T10:44:18;0.97;;;0.67;;
4222;SDS011;2125;51.436;14.138;2022-09-23T10:47:14;1.30;;;0.83;;
4222;SDS011;2125;51.436;14.138;2022-09-23T10:49:52;2.20;;;1.00;;
4222;SDS011;2125;51.436;14.138;2022-09-23T10:52:35;0.73;;;0.60;;
4222;SDS011;2125;51.436;14.138;2022-09-23T10:55:16;0.67;;;0.60;;
4222;SDS011;2125;51.436;14.138;2022-09-23T10:57:56;3.40;;;0.80;;
4222;SDS011;2125;51.436;14.138;2022-09-23T11:00:40;1.53;;;0.80;;
4222;SDS011;2125;51.436;14.138;2022-09-23T11:03:26;1.07;;;0.80;;
4222;SDS011;2125;51.436;14.138;2022-09-23T11:06:12;1.30;;;0.67;;
4222;SDS011;2125;51.436;14.138;2022-09-23T11:08:53;1.33;;;0.90;;
4222;SDS011;2125;51.436;14.138;2022-09-23T11:11:35;1.60;;;1.10;;
4222;SDS011;2125;51.436;14.138;2022-09-23T11:14:13;2.70;;;0.97;;
4222;SDS011;2125;51.436;14.138;2022-09-23T11:17:08;1.57;;;0.70;;
4222;SDS011;2125;51.436;14.138;2022-09-23T11:19:54;1.53;;;0.80;;
4222;SDS011;2125;51.436;14.138;2022-09-23T11:22:37;1.10;;;0.90;;
4222;SDS011;2125;51.436;14.138;2022-09-23T11:25:18;4.13;;;1.47;;
4222;SDS011;2125;51.436;14.138;2022-09-23T11:27:59;12.33;;;2.03;;
4222;SDS011;2125;51.436;14.138;2022-09-23T11:30:37;1.60;;;1.23;;
4222;SDS011;2125;51.436;14.138;2022-09-23T11:33:17;1.83;;;0.90;;
4222;SDS011;2125;51.436;14.138;2022-09-23T11:35:57;1.20;;;1.10;;
4222;SDS011;2125;51.436;14.138;2022-09-23T11:38:30;2.17;;;1.03;;
4222;SDS011;2125;51.436;14.138;2022-09-23T11:41:02;0.90;;;0.80;;
4222;SDS011;2125;51.436;14.138;2022-09-23T11:43:38;1.00;;;0.80;;
4222;SDS011;2125;51.436;14.138;2022-09-23T11:46:16;1.07;;;0.70;;
4222;SDS011;2125;51.436;14.138;2022-09-23T11:48:50;0.70;;;0.60;;
4222;SDS011;2125;51.436;14.138;2022-09-23T11:51:25;2.80;;;0.77;;
4222;SDS011;2125;51.436;14.138;2022-09-23T11:53:56;1.90;;;1.10;;
4222;SDS011;2125;51.436;14.138;2022-09-23T11:56:29;1.47;;;0.87;;
4222;SDS011;2125;51.436;14.138;2022-09-23T11:59:03;1.47;;;0.80;;
4222;SDS011;2125;51.436;14.138;2022-09-23T12:02:12;1.13;;;0.93;;
4222;SDS011;2125;51.436;14.138;2022-09-23T12:04:51;2.13;;;1.13;;
4222;SDS011;2125;51.436;14.138;2022-09-23T12:07:47;1.00;;;0.80;;
4222;SDS011;2125;51.436;14.138;2022-09-23T12:10:25;1.30;;;0.90;;
4222;SDS011;2125;51.436;14.138;2022-09-23T12:13:03;1.60;;;1.20;;
4222;SDS011;2125;51.436;14.138;2022-09-23T12:15:45;3.37;;;1.00;;
4222;SDS011;2125;51.436;14.138;2022-09-23T12:18:37;1.03;;;0.97;;
4222;SDS011;2125;51.436;14.138;2022-09-23T12:21:31;1.30;;;0.90;;
4222;SDS011;2125;51.436;14.138;2022-09-23T12:24:20;1.47;;;1.17;;
4222;SDS011;2125;51.436;14.138;2022-09-23T12:27:09;3.27;;;1.07;;
4222;SDS011;2125;51.436;14.138;2022-09-23T12:29:48;0.83;;;0.80;;
4222;SDS011;2125;51.436;14.138;2022-09-23T12:32:20;2.00;;;1.00;;
4222;SDS011;2125;51.436;14.138;2022-09-23T12:34:48;1.57;;;1.00;;
4222;SDS011;2125;51.436;14.138;2022-09-23T12:37:21;1.20;;;0.83;;
4222;SDS011;2125;51.436;14.138;2022-09-23T12:39:54;1.43;;;0.87;;
4222;SDS011;2125;51.436;14.138;2022-09-23T12:42:26;2.00;;;0.83;;
4222;SDS011;2125;51.436;14.138;2022-09-23T12:44:52;1.37;;;0.90;;
4222;SDS011;2125;51.436;14.138;2022-09-23T12:48:01;1.30;;;0.90;;
4222;SDS011;2125;51.436;14.138;2022-09-23T12:50:51;1.20;;;0.90;;
4222;SDS011;2125;51.436;14.138;2022-09-23T12:56:25;1.10;;;0.80;;
4222;SDS011;2125;51.436;14.138;2022-09-23T12:58:57;1.53;;;0.87;;
4222;SDS011;2125;51.436;14.138;2022-09-23T13:01:25;1.33;;;0.90;;
4222;SDS011;2125;51.436;14.138;2022-09-23T13:03:53;1.20;;;1.10;;
4222;SDS011;2125;51.436;14.138;2022-09-23T13:06:39;1.30;;;1.00;;
4222;SDS011;2125;51.436;14.138;2022-09-23T13:09:08;1.10;;;1.00;;
4222;SDS011;2125;51.436;14.138;2022-09-23T13:11:41;0.90;;;0.80;;
4222;SDS011;2125;51.436;14.138;2022-09-23T13:14:12;1.43;;;0.90;;
4222;SDS011;2125;51.436;14.138;2022-09-23T13:16:47;1.27;;;0.97;;
4222;SDS011;2125;51.436;14.138;2022-09-23T13:22:10;1.63;;;0.80;;
4222;SDS011;2125;51.436;14.138;2022-09-23T13:24:39;0.90;;;0.73;;
4222;SDS011;2125;51.436;14.138;2022-09-23T13:27:17;1.73;;;1.00;;
4222;SDS011;2125;51.436;14.138;2022-09-23T13:29:53;1.50;;;1.00;;
4222;SDS011;2125;51.436;14.138;2022-09-23T13:32:24;1.23;;;0.80;;
4222;SDS011;2125;51.436;14.138;2022-09-23T13:34:57;1.37;;;0.70;;
4222;SDS011;2125;51.436;14.138;2022-09-23T13:37:28;1.30;;;1.10;;
4222;SDS011;2125;51.436;14.138;2022-09-23T13:40:14;1.20;;;0.93;;
4222;SDS011;2125;51.436;14.138;2022-09-23T13:42:45;1.00;;;0.90;;
4222;SDS011;2125;51.436;14.138;2022-09-23T13:45:15;0.90;;;0.80;;
4222;SDS011;2125;51.436;14.138;2022-09-23T13:47:44;1.70;;;0.90;;
4222;SDS011;2125;51.436;14.138;2022-09-23T13:50:16;1.20;;;0.87;;
4222;SDS011;2125;51.436;14.138;2022-09-23T13:52:44;1.27;;;0.83;;
4222;SDS011;2125;51.436;14.138;2022-09-23T13:55:22;1.43;;;1.13;;
4222;SDS011;2125;51.436;14.138;2022-09-23T13:57:56;1.20;;;1.00;;
4222;SDS011;2125;51.436;14.138;2022-09-23T14:00:24;0.70;;;0.70;;
4222;SDS011;2125;51.436;14.138;2022-09-23T14:02:51;1.20;;;1.10;;
4222;SDS011;2125;51.436;14.138;2022-09-23T14:05:20;1.50;;;1.10;;
4222;SDS011;2125;51.436;14.138;2022-09-23T14:07:47;1.00;;;0.80;;
4222;SDS011;2125;51.436;14.138;2022-09-23T14:10:15;1.43;;;1.00;;
4222;SDS011;2125;51.436;14.138;2022-09-23T14:12:45;2.10;;;0.90;;
4222;SDS011;2125;51.436;14.138;2022-09-23T14:15:15;1.13;;;1.00;;
4222;SDS011;2125;51.436;14.138;2022-09-23T14:17:45;1.10;;;1.00;;
4222;SDS011;2125;51.436;14.138;2022-09-23T14:20:13;1.07;;;0.87;;
4222;SDS011;2125;51.436;14.138;2022-09-23T14:22:45;1.50;;;0.93;;
4222;SDS011;2125;51.436;14.138;2022-09-23T14:25:12;1.43;;;1.10;;
4222;SDS011;2125;51.436;14.138;2022-09-23T14:27:41;1.43;;;0.87;;
4222;SDS011;2125;51.436;14.138;2022-09-23T14:30:12;1.47;;;1.10;;
4222;SDS011;2125;51.436;14.138;2022-09-23T14:32:43;1.10;;;0.70;;
4222;SDS011;2125;51.436;14.138;2022-09-23T14:35:17;3.17;;;1.27;;
4222;SDS011;2125;51.436;14.138;2022-09-23T14:37:45;2.40;;;1.27;;
4222;SDS011;2125;51.436;14.138;2022-09-23T14:40:32;1.00;;;0.77;;
4222;SDS011;2125;51.436;14.138;2022-09-23T14:43:02;7.50;;;3.00;;
4222;SDS011;2125;51.436;14.138;2022-09-23T14:45:32;2.50;;;1.80;;
4222;SDS011;2125;51.436;14.138;2022-09-23T14:48:03;1.70;;;1.00;;
4222;SDS011;2125;51.436;14.138;2022-09-23T14:50:32;3.20;;;1.50;;
4222;SDS011;2125;51.436;14.138;2022-09-23T14:53:15;2.23;;;1.23;;
4222;SDS011;2125;51.436;14.138;2022-09-23T14:58:46;5.80;;;2.80;;
4222;SDS011;2125;51.436;14.138;2022-09-23T15:01:35;4.20;;;1.53;;
4222;SDS011;2125;51.436;14.138;2022-09-23T15:04:13;1.90;;;1.20;;
4222;SDS011;2125;51.436;14.138;2022-09-23T15:06:43;12.60;;;5.40;;
4222;SDS011;2125;51.436;14.138;2022-09-23T15:09:19;7.27;;;3.27;;
4222;SDS011;2125;51.436;14.138;2022-09-23T15:11:51;6.13;;;2.17;;
4222;SDS011;2125;51.436;14.138;2022-09-23T15:14:34;2.30;;;1.40;;
4222;SDS011;2125;51.436;14.138;2022-09-23T15:17:13;3.90;;;1.70;;
4222;SDS011;2125;51.436;14.138;2022-09-23T15:19:49;11.27;;;4.40;;
4222;SDS011;2125;51.436;14.138;2022-09-23T15:22:23;3.60;;;1.83;;
4222;SDS011;2125;51.436;14.138;2022-09-23T15:24:53;4.37;;;1.90;;
4222;SDS011;2125;51.436;14.138;2022-09-23T15:27:35;4.37;;;1.70;;
4222;SDS011;2125;51.436;14.138;2022-09-23T15:30:10;6.23;;;1.30;;
4222;SDS011;2125;51.436;14.138;2022-09-23T15:32:41;2.20;;;1.30;;
4222;SDS011;2125;51.436;14.138;2022-09-23T15:35:10;1.50;;;1.03;;
4222;SDS011;2125;51.436;14.138;2022-09-23T15:37:39;2.00;;;1.17;;
4222;SDS011;2125;51.436;14.138;2022-09-23T15:40:09;1.13;;;0.97;;
4222;SDS011;2125;51.436;14.138;2022-09-23T15:42:43;1.40;;;0.90;;
4222;SDS011;2125;51.436;14.138;2022-09-23T15:45:15;2.57;;;1.40;;
4222;SDS011;2125;51.436;14.138;2022-09-23T15:47:43;2.63;;;1.70;;
4222;SDS011;2125;51.436;14.138;2022-09-23T15:50:10;1.83;;;1.30;;
4222;SDS011;2125;51.436;14.138;2022-09-23T15:52:38;3.30;;;1.40;;
4222;SDS011;2125;51.436;14.138;2022-09-23T15:55:11;2.33;;;1.50;;
4222;SDS011;2125;51.436;14.138;2022-09-23T15:57:40;1.50;;;1.40;;
4222;SDS011;2125;51.436;14.138;2022-09-23T16:00:07;3.80;;;1.30;;
4222;SDS011;2125;51.436;14.138;2022-09-23T16:02:35;1.80;;;1.20;;
4222;SDS011;2125;51.436;14.138;2022-09-23T16:05:03;2.43;;;1.27;;
4222;SDS011;2125;51.436;14.138;2022-09-23T16:07:31;1.90;;;1.47;;
4222;SDS011;2125;51.436;14.138;2022-09-23T16:10:00;3.07;;;1.50;;
4222;SDS011;2125;51.436;14.138;2022-09-23T16:12:27;2.90;;;1.63;;
4222;SDS011;2125;51.436;14.138;2022-09-23T16:14:54;5.80;;;2.40;;
4222;SDS011;2125;51.436;14.138;2022-09-23T16:17:23;3.30;;;1.63;;
4222;SDS011;2125;51.436;14.138;2022-09-23T16:19:52;1.67;;;1.20;;
4222;SDS011;2125;51.436;14.138;2022-09-23T16:22:20;2.43;;;1.40;;
4222;SDS011;2125;51.436;14.138;2022-09-23T16:24:46;2.43;;;1.40;;
4222;SDS011;2125;51.436;14.138;2022-09-23T16:27:13;1.77;;;1.30;;
4222;SDS011;2125;51.436;14.138;2022-09-23T16:29:42;4.60;;;1.30;;
4222;SDS011;2125;51.436;14.138;2022-09-23T16:32:08;2.73;;;2.13;;
4222;SDS011;2125;51.436;14.138;2022-09-23T16:34:38;2.50;;;1.23;;
4222;SDS011;2125;51.436;14.138;2022-09-23T16:37:04;0.90;;;0.90;;